sensor_id;sensor_type;location;lat;lon;timestamp;pressure;altitude;pressure_sealevel;temperature;humidity
14790;BME280;7486;51.010;10.366;2023-01-15T00:00:14;96587.59;;;5.51;99.81
14790;BME280;7486;51.010;10.366;2023-01-15T00:02:41;96587.50;;;5.64;99.28
14790;BME280;7486;51.010;10.366;2023-01-15T00:05:07;96591.53;;;5.67;99.68
14790;BME280;7486;51.010;10.366;2023-01-15T00:07:34;96590.28;;;5.69;99.05
14790;BME280;7486;51.010;10.366;2023-01-15T00:10:01;96578.53;;;5.72;99.46
14790;BME280;7486;51.010;10.366;2023-01-15T00:12:27;96576.75;;;5.41;100.00
14790;BME280;7486;51.010;10.366;2023-01-15T00:14:54;96571.88;;;5.45;100.00
14790;BME280;7486;51.010;10.366;2023-01-15T00:17:21;96552.38;;;5.59;100.00
14790;BME280;7486;51.010;10.366;2023-01-15T00:19:47;96555.63;;;5.61;100.00
14790;BME280;7486;51.010;10.366;2023-01-15T00:22:14;96544.75;;;5.57;100.00
14790;BME280;7486;51.010;10.366;2023-01-15T00:24:41;96539.25;;;5.59;100.00
14790;BME280;7486;51.010;10.366;2023-01-15T00:27:09;96535.06;;;5.51;100.00
14790;BME280;7486;51.010;10.366;2023-01-15T00:29:36;96526.47;;;5.44;100.00
14790;BME280;7486;51.010;10.366;2023-01-15T00:32:06;96530.25;;;5.48;100.00
14790;BME280;7486;51.010;10.366;2023-01-15T00:34:34;96522.06;;;5.63;100.00
14790;BME280;7486;51.010;10.366;2023-01-15T00:37:01;96540.81;;;5.42;100.00
14790;BME280;7486;51.010;10.366;2023-01-15T00:39:31;96515.47;;;5.29;100.00
14790;BME280;7486;51.010;10.366;2023-01-15T00:41:58;96547.78;;;5.30;100.00
14790;BME280;7486;51.010;10.366;2023-01-15T00:44:24;96531.97;;;5.36;100.00
14790;BME280;7486;51.010;10.366;2023-01-15T00:46:51;96531.13;;;5.42;100.00
14790;BME280;7486;51.010;10.366;2023-01-15T00:49:20;96490.19;;;5.03;100.00
14790;BME280;7486;51.010;10.366;2023-01-15T00:51:46;96536.66;;;5.34;100.00
14790;BME280;7486;51.010;10.366;2023-01-15T00:54:13;96536.81;;;5.39;100.00
14790;BME280;7486;51.010;10.366;2023-01-15T00:56:40;96529.09;;;5.44;100.00
14790;BME280;7486;51.010;10.366;2023-01-15T00:59:06;96527.06;;;5.46;100.00
14790;BME280;7486;51.010;10.366;2023-01-15T01:01:35;96526.13;;;5.59;100.00
14790;BME280;7486;51.010;10.366;2023-01-15T01:04:02;96533.94;;;5.65;99.63
14790;BME280;7486;51.010;10.366;2023-01-15T01:06:29;96522.00;;;5.45;100.00
14790;BME280;7486;51.010;10.366;2023-01-15T01:08:55;96535.25;;;5.56;100.00
14790;BME280;7486;51.010;10.366;2023-01-15T01:11:24;96528.75;;;5.59;100.00
14790;BME280;7486;51.010;10.366;2023-01-15T01:13:53;96523.25;;;5.67;100.00
14790;BME280;7486;51.010;10.366;2023-01-15T01:18:47;96522.59;;;5.90;98.71
14790;BME280;7486;51.010;10.366;2023-01-15T01:21:15;96507.91;;;5.82;98.28
14790;BME280;7486;51.010;10.366;2023-01-15T01:23:41;96510.50;;;5.89;98.71
14790;BME280;7486;51.010;10.366;2023-01-15T01:26:08;96518.44;;;5.82;98.82
14790;BME280;7486;51.010;10.366;2023-01-15T01:28:35;96513.13;;;6.07;97.72
14790;BME280;7486;51.010;10.366;2023-01-15T01:31:06;96488.03;;;5.75;97.89
14790;BME280;7486;51.010;10.366;2023-01-15T01:33:33;96520.88;;;6.02;97.50
14790;BME280;7486;51.010;10.366;2023-01-15T01:36:00;96508.75;;;6.01;98.38
14790;BME280;7486;51.010;10.366;2023-01-15T01:38:27;96514.47;;;6.16;97.40
14790;BME280;7486;51.010;10.366;2023-01-15T01:40:55;96510.34;;;6.38;95.99
14790;BME280;7486;51.010;10.366;2023-01-15T01:43:24;96512.41;;;6.36;95.54
14790;BME280;7486;51.010;10.366;2023-01-15T01:45:51;96508.72;;;6.37;94.90
14790;BME280;7486;51.010;10.366;2023-01-15T01:48:21;96505.72;;;6.52;94.46
14790;BME280;7486;51.010;10.366;2023-01-15T01:50:53;96513.69;;;6.63;94.02
14790;BME280;7486;51.010;10.366;2023-01-15T01:53:24;96502.28;;;6.51;93.10
14790;BME280;7486;51.010;10.366;2023-01-15T01:55:54;96508.22;;;6.47;94.61
14790;BME280;7486;51.010;10.366;2023-01-15T01:58:24;96520.97;;;6.61;94.02
14790;BME280;7486;51.010;10.366;2023-01-15T02:00:53;96511.81;;;6.34;95.39
14790;BME280;7486;51.010;10.366;2023-01-15T02:03:24;96535.91;;;6.31;95.23
14790;BME280;7486;51.010;10.366;2023-01-15T02:05:55;96543.78;;;6.13;97.11
14790;BME280;7486;51.010;10.366;2023-01-15T02:08:23;96550.19;;;5.81;96.49
14790;BME280;7486;51.010;10.366;2023-01-15T02:10:53;96557.59;;;5.65;95.42
14790;BME280;7486;51.010;10.366;2023-01-15T02:13:37;96555.50;;;5.49;92.71
14790;BME280;7486;51.010;10.366;2023-01-15T02:16:10;96548.41;;;5.25;91.82
14790;BME280;7486;51.010;10.366;2023-01-15T02:27:04;96572.09;;;5.18;91.00
14790;BME280;7486;51.010;10.366;2023-01-15T02:29:44;96541.06;;;5.02;90.76
14790;BME280;7486;51.010;10.366;2023-01-15T02:32:19;96572.53;;;5.09;91.10
14790;BME280;7486;51.010;10.366;2023-01-15T02:34:54;96580.63;;;5.01;92.28
14790;BME280;7486;51.010;10.366;2023-01-15T02:37:29;96584.63;;;5.10;91.50
14790;BME280;7486;51.010;10.366;2023-01-15T02:39:59;96588.25;;;5.09;91.01
14790;BME280;7486;51.010;10.366;2023-01-15T02:42:30;96589.88;;;5.03;91.06
14790;BME280;7486;51.010;10.366;2023-01-15T02:45:01;96599.25;;;4.93;92.12
14790;BME280;7486;51.010;10.366;2023-01-15T02:47:33;96606.38;;;4.79;92.53
14790;BME280;7486;51.010;10.366;2023-01-15T02:50:05;96607.38;;;4.78;92.35
14790;BME280;7486;51.010;10.366;2023-01-15T02:52:42;96607.78;;;4.82;92.10
14790;BME280;7486;51.010;10.366;2023-01-15T02:55:16;96610.97;;;4.84;90.88
14790;BME280;7486;51.010;10.366;2023-01-15T02:57:46;96632.78;;;4.84;90.96
14790;BME280;7486;51.010;10.366;2023-01-15T03:00:16;96622.72;;;4.75;90.26
14790;BME280;7486;51.010;10.366;2023-01-15T03:02:50;96611.81;;;4.78;90.02
14790;BME280;7486;51.010;10.366;2023-01-15T03:05:24;96627.31;;;4.92;89.84
14790;BME280;7486;51.010;10.366;2023-01-15T03:07:59;96623.94;;;4.79;90.14
14790;BME280;7486;51.010;10.366;2023-01-15T03:10:48;96634.38;;;4.92;90.90
14790;BME280;7486;51.010;10.366;2023-01-15T03:13:30;96623.66;;;5.00;90.61
14790;BME280;7486;51.010;10.366;2023-01-15T03:16:03;96615.03;;;5.24;89.66
14790;BME280;7486;51.010;10.366;2023-01-15T03:18:41;96624.34;;;5.51;88.23
14790;BME280;7486;51.010;10.366;2023-01-15T03:21:12;96623.06;;;5.36;87.97
14790;BME280;7486;51.010;10.366;2023-01-15T03:23:46;96626.16;;;5.26;89.02
14790;BME280;7486;51.010;10.366;2023-01-15T03:26:16;96616.28;;;5.22;88.65
14790;BME280;7486;51.010;10.366;2023-01-15T03:28:44;96615.34;;;5.03;89.31
14790;BME280;7486;51.010;10.366;2023-01-15T03:31:13;96644.41;;;5.01;88.92
14790;BME280;7486;51.010;10.366;2023-01-15T03:33:41;96650.69;;;4.94;89.61
14790;BME280;7486;51.010;10.366;2023-01-15T03:36:12;96658.28;;;4.64;89.58
14790;BME280;7486;51.010;10.366;2023-01-15T03:38:44;96662.75;;;4.50;89.51
14790;BME280;7486;51.010;10.366;2023-01-15T03:44:21;96657.53;;;4.11;88.48
14790;BME280;7486;51.010;10.366;2023-01-15T03:49:25;96662.38;;;4.27;87.36
14790;BME280;7486;51.010;10.366;2023-01-15T03:52:17;96660.56;;;4.28;87.27
14790;BME280;7486;51.010;10.366;2023-01-15T03:55:10;96675.50;;;4.21;86.29
14790;BME280;7486;51.010;10.366;2023-01-15T03:57:41;96673.28;;;4.11;86.51
14790;BME280;7486;51.010;10.366;2023-01-15T04:00:14;96673.47;;;4.16;86.11
14790;BME280;7486;51.010;10.366;2023-01-15T04:02:51;96656.75;;;4.17;85.04
14790;BME280;7486;51.010;10.366;2023-01-15T04:05:20;96666.22;;;4.18;85.71
14790;BME280;7486;51.010;10.366;2023-01-15T04:07:48;96662.41;;;4.07;85.08
14790;BME280;7486;51.010;10.366;2023-01-15T04:10:17;96668.59;;;4.39;85.06
14790;BME280;7486;51.010;10.366;2023-01-15T04:12:45;96666.63;;;4.35;85.20
14790;BME280;7486;51.010;10.366;2023-01-15T04:15:12;96677.47;;;4.45;84.22
14790;BME280;7486;51.010;10.366;2023-01-15T04:17:39;96678.44;;;4.57;84.63
14790;BME280;7486;51.010;10.366;2023-01-15T04:20:08;96679.69;;;4.54;83.71
14790;BME280;7486;51.010;10.366;2023-01-15T04:22:54;96665.63;;;3.90;86.21
14790;BME280;7486;51.010;10.366;2023-01-15T04:25:20;96685.16;;;3.81;85.62
14790;BME280;7486;51.010;10.366;2023-01-15T04:27:47;96692.00;;;3.75;85.75
14790;BME280;7486;51.010;10.366;2023-01-15T04:30:14;96690.38;;;3.68;86.50
14790;BME280;7486;51.010;10.366;2023-01-15T04:32:42;96697.44;;;3.74;87.18
14790;BME280;7486;51.010;10.366;2023-01-15T04:35:08;96699.41;;;3.45;87.35
14790;BME280;7486;51.010;10.366;2023-01-15T04:37:35;96702.84;;;3.52;86.51
14790;BME280;7486;51.010;10.366;2023-01-15T04:40:02;96682.75;;;3.59;86.42
14790;BME280;7486;51.010;10.366;2023-01-15T04:42:29;96708.72;;;3.74;85.46
14790;BME280;7486;51.010;10.366;2023-01-15T04:44:56;96691.75;;;3.50;86.42
14790;BME280;7486;51.010;10.366;2023-01-15T04:47:23;96717.19;;;3.70;86.08
14790;BME280;7486;51.010;10.366;2023-01-15T04:49:50;96679.97;;;3.13;86.63
14790;BME280;7486;51.010;10.366;2023-01-15T04:52:16;96719.03;;;3.22;87.97
14790;BME280;7486;51.010;10.366;2023-01-15T04:54:43;96721.44;;;3.23;86.80
14790;BME280;7486;51.010;10.366;2023-01-15T04:57:10;96731.63;;;3.05;88.25
14790;BME280;7486;51.010;10.366;2023-01-15T04:59:37;96724.03;;;3.16;87.93
14790;BME280;7486;51.010;10.366;2023-01-15T05:02:04;96737.53;;;3.20;87.30
14790;BME280;7486;51.010;10.366;2023-01-15T05:04:33;96742.78;;;3.27;86.84
14790;BME280;7486;51.010;10.366;2023-01-15T05:07:02;96761.63;;;3.09;86.15
14790;BME280;7486;51.010;10.366;2023-01-15T05:09:29;96765.94;;;2.89;86.64
14790;BME280;7486;51.010;10.366;2023-01-15T05:11:55;96765.34;;;2.52;86.20
14790;BME280;7486;51.010;10.366;2023-01-15T05:14:22;96753.25;;;2.51;85.49
14790;BME280;7486;51.010;10.366;2023-01-15T05:16:49;96716.97;;;2.07;85.94
14790;BME280;7486;51.010;10.366;2023-01-15T05:19:16;96776.13;;;2.43;84.27
14790;BME280;7486;51.010;10.366;2023-01-15T05:21:43;96785.03;;;2.55;85.49
14790;BME280;7486;51.010;10.366;2023-01-15T05:24:13;96773.69;;;2.41;82.79
14790;BME280;7486;51.010;10.366;2023-01-15T05:26:41;96780.22;;;2.31;78.98
14790;BME280;7486;51.010;10.366;2023-01-15T05:29:09;96779.78;;;2.48;79.97
14790;BME280;7486;51.010;10.366;2023-01-15T05:31:36;96743.69;;;2.37;78.79
14790;BME280;7486;51.010;10.366;2023-01-15T05:34:04;96764.88;;;2.42;79.81
14790;BME280;7486;51.010;10.366;2023-01-15T05:36:31;96780.69;;;2.62;78.58
14790;BME280;7486;51.010;10.366;2023-01-15T05:38:58;96784.81;;;2.50;77.84
14790;BME280;7486;51.010;10.366;2023-01-15T05:41:26;96780.00;;;2.53;78.22
14790;BME280;7486;51.010;10.366;2023-01-15T05:43:55;96779.53;;;2.43;77.24
14790;BME280;7486;51.010;10.366;2023-01-15T05:46:22;96768.22;;;2.08;78.49
14790;BME280;7486;51.010;10.366;2023-01-15T05:48:48;96774.84;;;2.11;77.44
14790;BME280;7486;51.010;10.366;2023-01-15T05:51:15;96780.13;;;2.18;78.97
14790;BME280;7486;51.010;10.366;2023-01-15T05:53:42;96776.81;;;2.30;78.41
14790;BME280;7486;51.010;10.366;2023-01-15T05:56:09;96772.09;;;2.47;77.74
14790;BME280;7486;51.010;10.366;2023-01-15T05:58:36;96766.25;;;2.17;78.00
14790;BME280;7486;51.010;10.366;2023-01-15T06:01:07;96749.66;;;2.03;78.88
14790;BME280;7486;51.010;10.366;2023-01-15T06:03:35;96781.44;;;2.28;79.53
14790;BME280;7486;51.010;10.366;2023-01-15T06:06:03;96788.06;;;2.31;79.52
14790;BME280;7486;51.010;10.366;2023-01-15T06:08:30;96793.72;;;2.34;79.66
14790;BME280;7486;51.010;10.366;2023-01-15T06:10:56;96801.91;;;2.52;79.15
14790;BME280;7486;51.010;10.366;2023-01-15T06:13:23;96804.88;;;2.22;79.71
14790;BME280;7486;51.010;10.366;2023-01-15T06:15:50;96795.19;;;2.16;80.54
14790;BME280;7486;51.010;10.366;2023-01-15T06:18:16;96795.41;;;2.21;80.67
14790;BME280;7486;51.010;10.366;2023-01-15T06:20:43;96795.91;;;2.09;81.00
14790;BME280;7486;51.010;10.366;2023-01-15T06:23:10;96806.72;;;1.85;81.63
14790;BME280;7486;51.010;10.366;2023-01-15T06:25:36;96779.63;;;1.86;80.37
14790;BME280;7486;51.010;10.366;2023-01-15T06:28:04;96751.69;;;1.44;80.95
14790;BME280;7486;51.010;10.366;2023-01-15T06:30:30;96791.84;;;1.64;81.84
14790;BME280;7486;51.010;10.366;2023-01-15T06:32:57;96801.63;;;1.41;83.16
14790;BME280;7486;51.010;10.366;2023-01-15T06:35:24;96814.19;;;1.52;82.72
14790;BME280;7486;51.010;10.366;2023-01-15T06:37:51;96810.63;;;1.53;82.59
14790;BME280;7486;51.010;10.366;2023-01-15T06:40:18;96828.03;;;1.68;82.56
14790;BME280;7486;51.010;10.366;2023-01-15T06:42:45;96826.28;;;1.75;81.84
14790;BME280;7486;51.010;10.366;2023-01-15T06:45:12;96804.06;;;1.43;81.97
14790;BME280;7486;51.010;10.366;2023-01-15T06:47:39;96812.25;;;1.40;83.62
14790;BME280;7486;51.010;10.366;2023-01-15T06:50:06;96814.41;;;1.36;84.19
14790;BME280;7486;51.010;10.366;2023-01-15T06:52:33;96825.47;;;1.38;84.50
14790;BME280;7486;51.010;10.366;2023-01-15T06:54:59;96825.03;;;1.20;85.86
14790;BME280;7486;51.010;10.366;2023-01-15T06:57:26;96819.28;;;1.25;85.94
14790;BME280;7486;51.010;10.366;2023-01-15T06:59:53;96814.78;;;1.04;85.97
14790;BME280;7486;51.010;10.366;2023-01-15T07:02:19;96812.69;;;0.85;87.89
14790;BME280;7486;51.010;10.366;2023-01-15T07:04:46;96806.25;;;0.95;87.90
14790;BME280;7486;51.010;10.366;2023-01-15T07:07:14;96799.16;;;1.04;87.35
14790;BME280;7486;51.010;10.366;2023-01-15T07:09:42;96783.25;;;0.99;86.91
14790;BME280;7486;51.010;10.366;2023-01-15T07:12:09;96804.28;;;1.27;86.42
14790;BME280;7486;51.010;10.366;2023-01-15T07:14:35;96804.16;;;1.20;85.95
14790;BME280;7486;51.010;10.366;2023-01-15T07:17:02;96783.41;;;1.12;86.43
14790;BME280;7486;51.010;10.366;2023-01-15T07:19:29;96821.88;;;1.39;85.77
14790;BME280;7486;51.010;10.366;2023-01-15T07:21:56;96803.38;;;1.20;85.02
14790;BME280;7486;51.010;10.366;2023-01-15T07:24:22;96824.59;;;1.02;85.48
14790;BME280;7486;51.010;10.366;2023-01-15T07:26:49;96806.84;;;0.83;86.41
14790;BME280;7486;51.010;10.366;2023-01-15T07:29:16;96807.09;;;0.73;87.29
14790;BME280;7486;51.010;10.366;2023-01-15T07:31:43;96827.56;;;0.99;86.67
14790;BME280;7486;51.010;10.366;2023-01-15T07:34:09;96799.03;;;0.68;86.44
14790;BME280;7486;51.010;10.366;2023-01-15T07:36:36;96828.06;;;0.80;87.52
14790;BME280;7486;51.010;10.366;2023-01-15T07:39:04;96801.00;;;0.81;87.19
14790;BME280;7486;51.010;10.366;2023-01-15T07:41:31;96839.16;;;1.11;86.51
14790;BME280;7486;51.010;10.366;2023-01-15T07:43:57;96840.50;;;0.92;87.07
14790;BME280;7486;51.010;10.366;2023-01-15T07:46:24;96845.16;;;0.97;86.56
14790;BME280;7486;51.010;10.366;2023-01-15T07:48:51;96839.34;;;0.95;86.14
14790;BME280;7486;51.010;10.366;2023-01-15T07:51:18;96848.53;;;0.83;86.75
14790;BME280;7486;51.010;10.366;2023-01-15T07:53:44;96853.97;;;0.96;86.30
14790;BME280;7486;51.010;10.366;2023-01-15T07:56:12;96854.78;;;0.96;85.46
14790;BME280;7486;51.010;10.366;2023-01-15T07:58:38;96838.06;;;0.91;85.98
14790;BME280;7486;51.010;10.366;2023-01-15T08:01:05;96841.38;;;0.85;86.82
14790;BME280;7486;51.010;10.366;2023-01-15T08:03:33;96840.22;;;0.87;85.87
14790;BME280;7486;51.010;10.366;2023-01-15T08:05:59;96823.66;;;0.80;86.01
14790;BME280;7486;51.010;10.366;2023-01-15T08:08:26;96822.25;;;0.55;87.31
14790;BME280;7486;51.010;10.366;2023-01-15T08:10:53;96847.44;;;0.62;87.18
14790;BME280;7486;51.010;10.366;2023-01-15T08:13:19;96845.13;;;0.45;88.15
14790;BME280;7486;51.010;10.366;2023-01-15T08:15:46;96859.13;;;0.67;87.68
14790;BME280;7486;51.010;10.366;2023-01-15T08:18:13;96853.19;;;0.73;87.14
14790;BME280;7486;51.010;10.366;2023-01-15T08:20:39;96839.81;;;0.76;86.79
14790;BME280;7486;51.010;10.366;2023-01-15T08:23:06;96867.44;;;0.85;86.85
14790;BME280;7486;51.010;10.366;2023-01-15T08:25:33;96878.28;;;0.74;86.20
14790;BME280;7486;51.010;10.366;2023-01-15T08:28:00;96872.06;;;0.97;85.80
14790;BME280;7486;51.010;10.366;2023-01-15T08:30:27;96869.34;;;0.53;85.98
14790;BME280;7486;51.010;10.366;2023-01-15T08:32:58;96879.50;;;0.63;86.98
14790;BME280;7486;51.010;10.366;2023-01-15T08:35:25;96875.56;;;0.67;86.57
14790;BME280;7486;51.010;10.366;2023-01-15T08:37:52;96878.34;;;0.66;87.99
14790;BME280;7486;51.010;10.366;2023-01-15T08:40:20;96834.03;;;0.28;87.94
14790;BME280;7486;51.010;10.366;2023-01-15T08:42:46;96884.44;;;0.58;86.76
14790;BME280;7486;51.010;10.366;2023-01-15T08:45:14;96893.81;;;0.67;87.87
14790;BME280;7486;51.010;10.366;2023-01-15T08:47:44;96868.38;;;0.69;87.22
14790;BME280;7486;51.010;10.366;2023-01-15T08:50:11;96894.84;;;0.81;87.35
14790;BME280;7486;51.010;10.366;2023-01-15T08:52:38;96899.84;;;0.82;86.78
14790;BME280;7486;51.010;10.366;2023-01-15T08:55:09;96891.91;;;0.61;86.46
14790;BME280;7486;51.010;10.366;2023-01-15T08:57:35;96913.22;;;0.65;87.08
14790;BME280;7486;51.010;10.366;2023-01-15T09:00:03;96908.53;;;0.60;86.64
14790;BME280;7486;51.010;10.366;2023-01-15T09:02:30;96883.94;;;0.40;86.40
14790;BME280;7486;51.010;10.366;2023-01-15T09:04:57;96916.09;;;0.70;85.70
14790;BME280;7486;51.010;10.366;2023-01-15T09:07:24;96913.31;;;0.48;86.72
14790;BME280;7486;51.010;10.366;2023-01-15T09:09:51;96910.81;;;0.78;86.64
14790;BME280;7486;51.010;10.366;2023-01-15T09:12:17;96909.69;;;0.57;86.80
14790;BME280;7486;51.010;10.366;2023-01-15T09:14:44;96906.22;;;0.80;86.93
14790;BME280;7486;51.010;10.366;2023-01-15T09:17:30;96912.41;;;0.64;85.56
14790;BME280;7486;51.010;10.366;2023-01-15T09:19:57;96921.59;;;0.75;85.60
14790;BME280;7486;51.010;10.366;2023-01-15T09:22:23;96927.03;;;0.65;85.93
14790;BME280;7486;51.010;10.366;2023-01-15T09:24:50;96919.97;;;0.74;85.70
14790;BME280;7486;51.010;10.366;2023-01-15T09:27:17;96880.03;;;0.58;84.67
14790;BME280;7486;51.010;10.366;2023-01-15T09:29:44;96925.91;;;1.05;84.11
14790;BME280;7486;51.010;10.366;2023-01-15T09:32:10;96941.63;;;0.97;83.83
14790;BME280;7486;51.010;10.366;2023-01-15T09:34:37;96941.56;;;1.05;84.20
14790;BME280;7486;51.010;10.366;2023-01-15T09:37:04;96940.66;;;0.98;84.42
14790;BME280;7486;51.010;10.366;2023-01-15T09:39:31;96902.09;;;0.71;84.37
14790;BME280;7486;51.010;10.366;2023-01-15T09:45:19;96925.25;;;0.66;84.36
14790;BME280;7486;51.010;10.366;2023-01-15T09:50:17;96947.44;;;0.61;86.19
14790;BME280;7486;51.010;10.366;2023-01-15T09:55:19;96945.56;;;0.93;84.95
14790;BME280;7486;51.010;10.366;2023-01-15T09:57:49;96946.97;;;0.81;84.47
14790;BME280;7486;51.010;10.366;2023-01-15T10:00:20;96959.34;;;0.56;85.55
14790;BME280;7486;51.010;10.366;2023-01-15T10:06:00;96962.72;;;0.65;85.91
14790;BME280;7486;51.010;10.366;2023-01-15T10:08:46;96954.25;;;0.62;85.87
14790;BME280;7486;51.010;10.366;2023-01-15T10:13:44;96943.44;;;0.51;86.05
14790;BME280;7486;51.010;10.366;2023-01-15T10:16:19;96947.50;;;0.53;86.26
14790;BME280;7486;51.010;10.366;2023-01-15T10:18:48;96947.84;;;0.50;85.98
14790;BME280;7486;51.010;10.366;2023-01-15T10:26:41;96934.63;;;0.52;86.21
14790;BME280;7486;51.010;10.366;2023-01-15T10:37:31;96945.88;;;0.52;86.04
14790;BME280;7486;51.010;10.366;2023-01-15T10:42:53;96955.59;;;0.36;86.38
14790;BME280;7486;51.010;10.366;2023-01-15T10:45:26;96961.94;;;0.33;86.16
14790;BME280;7486;51.010;10.366;2023-01-15T10:48:00;96931.25;;;0.21;85.35
14790;BME280;7486;51.010;10.366;2023-01-15T10:50:30;96963.13;;;0.31;85.57
14790;BME280;7486;51.010;10.366;2023-01-15T10:53:05;96783.88;;;-0.57;85.09
14790;BME280;7486;51.010;10.366;2023-01-15T10:55:40;96960.97;;;0.57;85.12
14790;BME280;7486;51.010;10.366;2023-01-15T11:00:48;96958.56;;;0.25;86.16
14790;BME280;7486;51.010;10.366;2023-01-15T11:03:21;96964.63;;;0.48;85.36
14790;BME280;7486;51.010;10.366;2023-01-15T11:05:55;96958.81;;;0.38;86.06
14790;BME280;7486;51.010;10.366;2023-01-15T11:08:24;96937.22;;;0.29;84.93
14790;BME280;7486;51.010;10.366;2023-01-15T11:14:01;96967.00;;;0.57;85.08
14790;BME280;7486;51.010;10.366;2023-01-15T11:16:27;96962.19;;;0.46;84.62
14790;BME280;7486;51.010;10.366;2023-01-15T11:18:54;96973.06;;;0.50;84.88
14790;BME280;7486;51.010;10.366;2023-01-15T11:21:22;96920.63;;;0.30;84.33
14790;BME280;7486;51.010;10.366;2023-01-15T11:23:50;96918.84;;;0.31;83.85
14790;BME280;7486;51.010;10.366;2023-01-15T11:26:37;96951.94;;;0.45;84.85
14790;BME280;7486;51.010;10.366;2023-01-15T11:29:13;96959.31;;;0.64;84.41
14790;BME280;7486;51.010;10.366;2023-01-15T11:31:41;96953.63;;;0.60;84.58
14790;BME280;7486;51.010;10.366;2023-01-15T11:34:18;96959.63;;;0.38;86.18
14790;BME280;7486;51.010;10.366;2023-01-15T11:36:47;96968.59;;;0.36;85.03
14790;BME280;7486;51.010;10.366;2023-01-15T11:39:24;96964.75;;;0.54;85.58
14790;BME280;7486;51.010;10.366;2023-01-15T11:42:01;96960.00;;;0.58;84.97
14790;BME280;7486;51.010;10.366;2023-01-15T11:44:28;96953.63;;;0.60;84.88
14790;BME280;7486;51.010;10.366;2023-01-15T11:46:55;96953.56;;;0.69;84.86
14790;BME280;7486;51.010;10.366;2023-01-15T11:49:22;96960.69;;;0.75;84.30
14790;BME280;7486;51.010;10.366;2023-01-15T11:51:48;96962.38;;;0.68;84.72
14790;BME280;7486;51.010;10.366;2023-01-15T11:54:16;96958.25;;;0.50;85.19
14790;BME280;7486;51.010;10.366;2023-01-15T11:56:44;96963.59;;;0.57;84.43
14790;BME280;7486;51.010;10.366;2023-01-15T11:59:16;96958.19;;;0.58;84.59
14790;BME280;7486;51.010;10.366;2023-01-15T12:02:16;96948.47;;;0.75;85.70
14790;BME280;7486;51.010;10.366;2023-01-15T12:04:52;96951.94;;;0.90;83.31
14790;BME280;7486;51.010;10.366;2023-01-15T12:07:21;96945.53;;;0.78;84.03
14790;BME280;7486;51.010;10.366;2023-01-15T12:21:04;96969.09;;;0.85;82.72
14790;BME280;7486;51.010;10.366;2023-01-15T12:23:57;96950.84;;;0.85;83.74
14790;BME280;7486;51.010;10.366;2023-01-15T12:26:31;96948.81;;;0.95;83.05
14790;BME280;7486;51.010;10.366;2023-01-15T12:29:14;96919.03;;;0.89;82.70
14790;BME280;7486;51.010;10.366;2023-01-15T12:31:54;96945.28;;;1.25;82.33
14790;BME280;7486;51.010;10.366;2023-01-15T12:34:26;96901.31;;;0.85;82.03
14790;BME280;7486;51.010;10.366;2023-01-15T12:42:47;96940.34;;;1.59;80.44
14790;BME280;7486;51.010;10.366;2023-01-15T12:45:19;96925.78;;;1.50;79.66
14790;BME280;7486;51.010;10.366;2023-01-15T12:50:48;96941.06;;;1.53;78.95
14790;BME280;7486;51.010;10.366;2023-01-15T12:59:06;96942.59;;;1.48;79.77
14790;BME280;7486;51.010;10.366;2023-01-15T13:01:55;96943.22;;;1.50;80.04
14790;BME280;7486;51.010;10.366;2023-01-15T13:07:04;96957.25;;;1.34;79.47
14790;BME280;7486;51.010;10.366;2023-01-15T13:09:41;96943.94;;;1.29;78.30
14790;BME280;7486;51.010;10.366;2023-01-15T13:12:13;96954.94;;;1.54;77.65
14790;BME280;7486;51.010;10.366;2023-01-15T13:14:41;96944.59;;;1.60;77.83
14790;BME280;7486;51.010;10.366;2023-01-15T13:17:44;96946.66;;;1.50;76.85
14790;BME280;7486;51.010;10.366;2023-01-15T13:20:24;96953.94;;;1.55;74.25
14790;BME280;7486;51.010;10.366;2023-01-15T13:23:14;96966.53;;;1.51;73.96
14790;BME280;7486;51.010;10.366;2023-01-15T13:26:04;96958.78;;;1.73;72.99
14790;BME280;7486;51.010;10.366;2023-01-15T13:33:47;96972.09;;;1.48;72.65
14790;BME280;7486;51.010;10.366;2023-01-15T13:36:32;96978.94;;;1.49;72.83
14790;BME280;7486;51.010;10.366;2023-01-15T13:39:02;96992.53;;;1.59;73.48
14790;BME280;7486;51.010;10.366;2023-01-15T13:41:32;96959.44;;;1.60;72.49
14790;BME280;7486;51.010;10.366;2023-01-15T13:44:00;96975.44;;;1.72;71.54
14790;BME280;7486;51.010;10.366;2023-01-15T13:46:27;96982.66;;;1.70;72.08
14790;BME280;7486;51.010;10.366;2023-01-15T13:48:57;96987.25;;;1.68;71.91
14790;BME280;7486;51.010;10.366;2023-01-15T13:53:59;97002.72;;;1.98;71.00
14790;BME280;7486;51.010;10.366;2023-01-15T13:56:32;97006.31;;;1.97;70.91
14790;BME280;7486;51.010;10.366;2023-01-15T13:59:05;96999.91;;;2.00;70.39
14790;BME280;7486;51.010;10.366;2023-01-15T14:01:48;97013.25;;;1.90;69.59
14790;BME280;7486;51.010;10.366;2023-01-15T14:04:32;97008.72;;;1.99;69.50
14790;BME280;7486;51.010;10.366;2023-01-15T14:07:17;97018.84;;;2.02;69.88
14790;BME280;7486;51.010;10.366;2023-01-15T14:09:45;97018.38;;;1.98;69.83
14790;BME280;7486;51.010;10.366;2023-01-15T14:18:28;97014.72;;;1.41;71.04
14790;BME280;7486;51.010;10.366;2023-01-15T14:32:53;97011.69;;;1.52;71.06
14790;BME280;7486;51.010;10.366;2023-01-15T14:35:24;96981.53;;;1.35;70.12
14790;BME280;7486;51.010;10.366;2023-01-15T14:38:03;96999.94;;;1.19;70.79
14790;BME280;7486;51.010;10.366;2023-01-15T14:40:34;97033.47;;;1.59;70.16
14790;BME280;7486;51.010;10.366;2023-01-15T14:43:09;97020.25;;;1.60;70.29
14790;BME280;7486;51.010;10.366;2023-01-15T14:45:47;97034.84;;;1.70;70.03
14790;BME280;7486;51.010;10.366;2023-01-15T14:51:15;97033.09;;;1.33;70.56
14790;BME280;7486;51.010;10.366;2023-01-15T14:53:48;96979.09;;;1.19;69.44
14790;BME280;7486;51.010;10.366;2023-01-15T14:56:31;97035.94;;;1.60;69.44
14790;BME280;7486;51.010;10.366;2023-01-15T14:59:14;97034.91;;;1.47;70.23
14790;BME280;7486;51.010;10.366;2023-01-15T15:01:50;97043.25;;;1.42;70.29
14790;BME280;7486;51.010;10.366;2023-01-15T15:04:44;97023.94;;;1.14;71.12
14790;BME280;7486;51.010;10.366;2023-01-15T15:07:34;97059.06;;;1.41;70.98
14790;BME280;7486;51.010;10.366;2023-01-15T15:15:38;97050.66;;;1.53;69.86
14790;BME280;7486;51.010;10.366;2023-01-15T15:20:58;97054.25;;;1.52;70.08
14790;BME280;7486;51.010;10.366;2023-01-15T15:26:39;97054.91;;;1.69;69.51